Weather observations for the past three days for
Corning Municipal Airport
Imperial (Metric)
Date Time (cdt) Wind (mph) Vis. (mi.) Weather Sky Cond. Temperature (ºF) Relative Humidity Wind Chill (°F) Heat Index (°F) Pressure Precipitation (in)
Air Dwpt 6 hour altimeter (in) sea level (mb) 1 hr 3 hr 6 hr
Max. Min.
08 23:55 SW 10 10.00 A Few Clouds FEW120 66.2 57.2 73% 29.79 0.0
08 23:35 S 12 10.00 Partly Cloudy SCT120 66.2 57.2 73% 29.79 0.0
08 23:15 S 8 10.00 A Few Clouds FEW120 66.2 57.2 73% 29.79 0.0
08 22:55 S 9 10.00 Fair CLR 64.4 57.2 78% 29.81 0.0
08 22:35 S 10 10.00 Mostly Cloudy BKN110 66.2 55.4 68% 29.8 0.0
08 22:15 S 10 10.00 Mostly Cloudy BKN110 66.2 55.4 68% 29.81 0.0
08 21:55 S 8 10.00 A Few Clouds FEW110 66.2 55.4 68% 29.82 0.0
08 21:35 SW 8 10.00 Fair CLR 66.2 55.4 68% 29.83 0.0
08 21:15 SW 8 10.00 Fair CLR 66.2 55.4 68% 29.82 0.0
08 20:55 SW 10 10.00 Fair CLR 66.2 55.4 68% 29.81 0.0
08 20:35 S 13 10.00 Fair CLR 68 53.6 60% 29.8 0.0
08 20:15 S 13 10.00 Fair CLR 68 53.6 60% 29.8 0.0
08 19:55 S 13 G 18 10.00 Fair CLR 69.8 55.4 60% 29.8 0.0
08 19:35 S 14 10.00 Fair CLR 71.6 55.4 57% 29.81 0.0
08 19:15 S 15 10.00 Fair CLR 73.4 55.4 53% 29.81 0.0
08 18:55 S 17 10.00 Fair CLR 73.4 57.2 57% 29.82 0.0
08 18:35 SW 15 10.00 Fair CLR 75.2 57.2 54% 78 29.82 0.0
08 18:15 SW 17 10.00 Fair CLR 75.2 55.4 50% 78 29.82 0.0
08 17:55 S 13 10.00 Fair CLR 75.2 57.2 54% 78 29.82 0.0
08 17:35 S 16 G 22 10.00 Fair CLR 77 57.2 51% 79 29.82 0.0
08 17:15 SW 16 10.00 Fair CLR 77 55.4 47% 79 29.82 0.0
08 16:55 SW 14 10.00 Fair CLR 77 55.4 47% 79 29.82 0.0
08 16:35 S 14 G 22 10.00 Fair CLR 77 55.4 47% 79 29.83 0.0
08 16:15 SW 18 10.00 Fair CLR 77 53.6 44% 78 29.84 0.0
08 15:55 S 17 10.00 Fair CLR 77 55.4 47% 79 29.84 0.0
08 15:35 SW 15 10.00 Fair CLR 75.2 55.4 50% 78 29.85 0.0
08 15:15 SW 13 G 21 10.00 Fair CLR 75.2 55.4 50% 78 29.86 0.0
08 14:55 S 12 G 22 10.00 Fair CLR 75.2 55.4 50% 78 29.86 0.0
08 14:35 S 15 G 22 10.00 Fair CLR 75.2 55.4 50% 78 29.87 0.0
08 14:15 S 13 G 23 10.00 Fair CLR 75.2 57.2 54% 78 29.88 0.0
08 13:55 SW 17 9.00 Fair CLR 73.4 57.2 57% 29.89 0.0
08 13:35 S 16 G 25 10.00 Fair CLR 73.4 57.2 57% 29.91 0.0
08 13:15 SW 15 G 22 10.00 Fair CLR 73.4 55.4 53% 29.92 0.0
08 12:55 SW 17 G 25 6.00 Fair with Haze CLR 73.4 57.2 57% 29.93 0.0
08 12:35 SW 20 9.00 Fair CLR 71.6 57.2 61% 29.94 0.0
08 12:15 SW 17 G 23 10.00 Fair CLR 71.6 57.2 61% 29.95 0.0
08 11:55 SW 18 10.00 Fair CLR 71.6 57.2 61% 29.95 0.0
08 11:35 SW 20 9.00 Fair CLR 69.8 57.2 64% 29.96 0.0
08 11:15 S 15 10.00 Fair CLR 69.8 57.2 64% 29.97 0.0
08 10:55 SW 16 9.00 Fair CLR 68 57.2 69% 29.98 0.0
08 10:35 S 16 10.00 Fair CLR 68 57.2 69% 29.98 0.0
08 10:15 S 15 10.00 Fair CLR 68 57.2 69% 29.98 0.0
08 09:55 S 15 G 21 9.00 Fair CLR 66.2 55.4 68% 29.99 0.0
08 09:35 SW 13 10.00 Fair CLR 66.2 57.2 73% 30 0.0
08 09:15 S 14 10.00 Fair CLR 64.4 55.4 73% 30.01 0.0
08 08:55 S 12 10.00 Fair CLR 62.6 55.4 77% 30.01 0.0
08 08:35 SW 12 10.00 Fair CLR 60.8 55.4 83% 30.01 0.0
08 08:15 SW 10 10.00 Fair CLR 59 53.6 82% 30.02 0.0
08 07:55 SW 10 9.00 Fair CLR 59 53.6 82% 30.01 0.0
08 07:35 S 7 6.00 Fog/Mist CLR 57.2 53.6 88% 30.01 0.0
08 07:15 S 6 10.00 Fair CLR 55.4 53.6 94% 30.01 0.0
08 06:55 SW 3 10.00 Fair CLR 53.6 53.6 100% 30.01 0.0
08 06:35 SW 6 10.00 Fair CLR 51.8 51.8 100% 30 0.0
08 06:15 SW 6 10.00 Fair CLR 51.8 51.8 100% 29.99 0.0
08 05:55 SW 6 10.00 Fair CLR 51.8 51.8 100% 29.98 0.0
08 05:35 SW 6 10.00 Fair CLR 51.8 51.8 100% 29.97 0.0
08 05:15 S 5 10.00 Fair CLR 51.8 50 94% 29.98 0.0
08 04:55 S 6 10.00 Fair CLR 51.8 51.8 100% 29.98 0.0
08 04:35 S 6 10.00 Fair CLR 51.8 51.8 100% 29.98 0.0
08 04:15 S 7 10.00 Fair CLR 51.8 51.8 100% 29.98 0.0
08 03:55 SW 3 10.00 Fair CLR 51.8 51.8 100% 29.98 0.0
08 03:35 SW 3 10.00 Fair CLR 51.8 51.8 100% 29.98 0.0
08 03:15 S 3 10.00 Fair CLR 51.8 51.8 100% 29.99 0.0
08 02:55 Calm 10.00 Fair CLR 53.6 51.8 94% 29.99 0.0
08 02:35 SE 5 10.00 Fair CLR 53.6 51.8 94% 30 0.0
08 02:15 SE 5 10.00 Fair CLR 53.6 51.8 94% 30.01 0.0
08 01:55 SE 6 10.00 Fair CLR 53.6 51.8 94% 30.01 0.0
08 01:35 SE 6 10.00 Fair CLR 53.6 51.8 94% 30.01 0.0
08 01:15 SE 3 10.00 Fair CLR 55.4 51.8 88% 30.01 0.0
08 00:55 S 3 10.00 Fair CLR 55.4 50 82% 30.02 0.0
08 00:35 S 3 10.00 Fair CLR 55.4 50 82% 30.01 0.0
08 00:15 S 5 10.00 Fair CLR 55.4 51.8 88% 30.01 0.0
07 23:55 S 6 10.00 Fair CLR 55.4 51.8 88% 30.01 0.0
07 23:35 S 6 10.00 Fair CLR 57.2 50 77% 30.01 0.0
07 23:15 S 5 10.00 Fair CLR 57.2 51.8 82% 30.02 0.0
07 22:55 SE 6 10.00 Fair CLR 57.2 53.6 88% 30.01 0.0
07 22:35 S 6 10.00 Fair CLR 57.2 51.8 82% 30.01 0.0
07 22:15 S 5 10.00 Fair CLR 59 51.8 77% 30.01 0.0
07 21:55 S 7 10.00 Fair CLR 59 50 72% 30.01 0.0
07 21:35 S 8 10.00 Fair CLR 59 51.8 77% 30.01 0.0
07 21:15 S 5 10.00 Fair CLR 59 53.6 82% 29.99 0.0
07 20:55 S 5 10.00 Fair CLR 60.8 51.8 72% 29.99 0.0
07 20:35 S 6 10.00 Fair CLR 60.8 51.8 72% 29.98 0.0
07 20:15 S 6 10.00 Fair CLR 62.6 51.8 68% 29.98 0.0
07 19:55 SE 9 10.00 Fair CLR 62.6 51.8 68% 29.98 0.0
07 19:35 S 7 10.00 Fair CLR 64.4 50 60% 29.98 0.0
07 19:15 S 7 10.00 Fair CLR 66.2 48.2 52% 29.98 0.0
07 18:55 S 7 10.00 Fair CLR 66.2 46.4 49% 29.98 0.0
07 18:35 SE 9 10.00 Fair CLR 68 46.4 46% 29.98 0.0
07 18:15 SE 8 10.00 Fair CLR 68 48.2 49% 29.98 0.0
07 17:55 SE 10 10.00 Fair CLR 68 46.4 46% 29.98 0.0
07 17:35 S 8 10.00 Fair CLR 69.8 48.2 46% 29.98 0.0
07 17:15 S 7 10.00 Fair CLR 69.8 48.2 46% 29.99 0.0
07 16:55 Calm 8.00 Fair CLR 69.8 48.2 46% 29.99 0.0
07 16:35 Calm 10.00 Fair CLR 68 46.4 46% 29.99 0.0
07 16:15 Calm 9.00 Fair CLR 68 44.6 43% 29.99 0.0
07 15:15 S 5 10.00 Fair CLR 68 46.4 46% 30.01 0.0
07 14:55 SE 5 8.00 Fair CLR 66.2 44.6 46% 30.02 0.0
07 14:35 Calm 10.00 Fair CLR 66.2 44.6 46% 30.03 0.0
07 14:15 Vrbl 3 10.00 Fair CLR 66.2 42.8 43% 30.04 0.0
07 13:55 Calm 10.00 Fair CLR 66.2 42.8 43% 30.04 0.0
07 13:35 Calm 10.00 Fair CLR 64.4 41 43% 30.04 0.0
07 13:15 NE 7 10.00 Fair CLR 64.4 39.2 40% 30.05 0.0
07 12:55 E 5 10.00 Fair CLR 64.4 41 43% 30.06 0.0
07 12:35 Calm 10.00 Fair CLR 64.4 42.8 46% 30.07 0.0
07 12:15 NE 5 10.00 Fair CLR 64.4 44.6 49% 30.07 0.0
07 11:55 Vrbl 5 10.00 Fair CLR 62.6 44.6 52% 30.08 0.0
07 11:35 Calm 10.00 Fair CLR 62.6 42.8 49% 30.08 0.0
07 11:15 N 3 10.00 Fair CLR 62.6 42.8 49% 30.08 0.0
07 10:55 Calm 10.00 Fair CLR 60.8 41 48% 30.08 0.0
07 10:35 Vrbl 5 10.00 Fair CLR 60.8 44.6 55% 30.09 0.0
07 10:15 Calm 4.00 Fair with Haze CLR 60.8 44.6 55% 30.09 0.0
07 09:55 Calm 10.00 Fair CLR 59 44.6 59% 30.09 0.0
07 09:35 Vrbl 3 10.00 Fair CLR 59 44.6 59% 30.1 0.0
07 09:15 E 3 9.00 Fair CLR 57.2 46.4 67% 30.09 0.0
07 08:55 Calm 10.00 Fair CLR 55.4 46.4 72% 30.1 0.0
07 08:35 NE 5 10.00 Fair CLR 53.6 46.4 77% 30.09 0.0
07 08:15 NE 7 10.00 Fair CLR 51.8 44.6 77% 30.09 0.0
07 07:55 NE 7 10.00 Fair CLR 51.8 46.4 82% 30.09 0.0
07 07:35 NE 5 10.00 Fair CLR 50 44.6 82% 49 30.08 0.0
07 07:15 Calm 10.00 Fair CLR 48.2 46.4 94% 30.08 0.0
07 06:55 Calm 10.00 Fair CLR 48.2 48.2 100% 30.08 0.0
07 06:35 NW 3 10.00 Fair CLR 46.4 46.4 100% 30.07 0.0
07 06:15 Calm 10.00 Fair CLR 46.4 46.4 100% 30.06 0.0
07 05:55 N 3 10.00 Fair CLR 46.4 46.4 100% 30.05 0.0
07 05:35 N 5 10.00 Fair CLR 46.4 46.4 100% 45 30.05 0.0
07 05:15 N 6 10.00 Fair CLR 48.2 46.4 94% 46 30.05 0.0
07 04:55 N 7 10.00 Fair CLR 48.2 46.4 94% 46 30.05 0.0
07 04:35 N 7 10.00 Fair CLR 48.2 46.4 94% 46 30.05 0.0
07 04:15 N 5 10.00 Fair CLR 48.2 48.2 100% 47 30.05 0.0
07 03:55 N 5 10.00 Fair CLR 48.2 48.2 100% 47 30.04 0.0
07 03:35 N 8 10.00 Fair CLR 50 50 100% 47 30.04 0.0
07 03:15 N 6 10.00 Fair CLR 50 50 100% 48 30.04 0.0
07 02:55 N 6 10.00 Fair CLR 50 50 100% 48 30.03 0.0
07 02:35 N 5 10.00 Fair CLR 50 50 100% 49 30.03 0.0
07 02:15 N 5 10.00 Fair CLR 50 50 100% 49 30.03 0.0
07 01:55 N 5 10.00 Fair CLR 51.8 51.8 100% 30.03 0.0
07 01:35 NW 5 10.00 Fair CLR 51.8 51.8 100% 30.03 0.0
07 01:15 NW 5 10.00 Fair CLR 51.8 51.8 100% 30.04 0.0
07 00:55 NW 5 10.00 Fair CLR 53.6 51.8 94% 30.03 0.0
07 00:35 N 5 10.00 Partly Cloudy SCT110 53.6 53.6 100% 30.03 0.0
07 00:15 NW 3 10.00 Overcast OVC110 53.6 53.6 100% 30.04 0.0
06 23:55 Calm 10.00 Partly Cloudy SCT110 53.6 53.6 100% 30.03 0.0
06 23:35 Calm 10.00 Fair CLR 55.4 51.8 88% 30.02 0.0
06 23:15 N 3 10.00 Fair CLR 55.4 51.8 88% 30.02 0.0
06 22:55 NE 6 10.00 Fair CLR 55.4 51.8 88% 30.02 0.0
06 22:35 NE 5 10.00 A Few Clouds FEW120 55.4 53.6 94% 30.02 0.0
06 22:15 NE 6 10.00 Mostly Cloudy BKN110 57.2 53.6 88% 30.02 0.0
06 21:55 N 8 10.00 Mostly Cloudy FEW080 BKN110 59 50 72% 30.01 0.0
06 21:35 N 7 9.00 Mostly Cloudy FEW060 SCT075 BKN100 57.2 50 77% 30.01 0.0
06 21:15 Calm 10.00 Overcast FEW042 BKN075 OVC100 59 55.4 88% 30.01 0.0
06 20:55 Calm 7.00 Mostly Cloudy FEW045 SCT060 BKN075 59 53.6 82% 30.01 0.0
06 20:35 NE 5 10.00 Overcast FEW047 SCT065 OVC120 59 53.6 82% 29.99 0.0
06 20:15 Calm 10.00 Overcast FEW065 FEW080 OVC120 59 55.4 88% 29.99 0.0
06 19:55 Calm 10.00 Mostly Cloudy BKN120 59 55.4 88% 30.01 0.0
06 19:35 Calm 10.00 Fair CLR 59 53.6 82% 29.99 0.0
06 19:15 NE 5 10.00 Fair CLR 60.8 51.8 72% 29.99 0.0
06 18:55 Vrbl 5 10.00 Fair CLR 60.8 50 68% 30 0.0
06 18:35 N 6 10.00 Fair CLR 62.6 50 64% 29.97 0.0
06 18:15 N 7 10.00 Fair CLR 62.6 50 64% 29.97 0.0
06 17:55 NE 9 10.00 Fair CLR 62.6 50 64% 29.96 0.0
06 17:35 NE 12 10.00 NULL NULL 62.6 50 64% 29.94 0.0
06 17:15 NE 9 10.00 Fair CLR 60.8 50 68% 29.95 0.0
06 16:55 NE 10 10.00 Fair CLR 60.8 48.2 63% 29.95 0.0
06 16:35 NE 6 10.00 Fair CLR 60.8 48.2 63% 29.97 0.0
06 16:15 N 8 10.00 Fair CLR 60.8 48.2 63% 29.99 0.0
06 15:55 NE 8 10.00 Fair CLR 60.8 48.2 63% 29.99 0.0
06 15:35 Vrbl 5 10.00 Fair CLR 60.8 46.4 59% 30 0.0
06 15:15 Calm 10.00 Fair CLR 59 46.4 63% 30.02 0.0
06 14:55 N 3 10.00 NULL NULL 60.8 46.4 59% 30.02 0.0
06 14:35 NE 8 10.00 Fair CLR 59 46.4 63% 30.02 0.0
06 14:15 NE 10 10.00 NULL NULL 60.8 46.4 59% 30 0.0
06 13:55 Vrbl 7 10.00 NULL NULL 59 46.4 63% 30.01 0.0
06 13:35 N 7 10.00 NULL NULL 59 46.4 63% 30.03 0.0
06 13:15 N 12 G 17 10.00 NULL NULL 60.8 46.4 59% 30.01 0.0
06 12:55 NE 13 10.00 NULL NULL 59 46.4 63% 30 0.0
06 12:35 N 9 G 16 10.00 NULL NULL 59 46.4 63% 30.01 0.0
06 12:15 NE 9 10.00 NULL NULL 59 46.4 63% 30.02 0.0
06 11:55 NE 12 10.00 NULL NULL 57.2 46.4 67% 30.03 0.0
06 11:35 Vrbl 7 10.00 NULL NULL 55.4 46.4 72% 30.04 0.0
06 11:15 NE 15 10.00 NULL NULL 57.2 46.4 67% 30.02 0.0
06 10:55 NE 13 G 20 10.00 NULL NULL 55.4 44.6 67% 30.01 0.0
06 10:35 N 8 G 18 10.00 NULL NULL 55.4 46.4 72% 30.03 0.0
06 10:15 N 13 G 20 9.00 NULL NULL 55.4 48.2 77% 30 0.0
06 09:55 N 13 10.00 NULL NULL 53.6 48.2 82% 30.01 0.0
06 09:35 N 13 10.00 NULL NULL 51.8 48.2 88% 30.02 0.0
06 09:15 N 10 10.00 NULL NULL 51.8 48.2 88% 30.02 0.0
06 08:55 N 8 10.00 NULL NULL 51.8 48.2 88% 30.02 0.0
06 08:35 N 8 10.00 Overcast OVC041 50 48.2 94% 47 30 0.0
06 08:15 NW 13 10.00 Overcast OVC040 50 48.2 94% 46 30 0.0
06 07:55 N 12 10.00 Overcast OVC039 50 48.2 94% 46 29.98 0.0
06 07:35 N 9 G 17 10.00 Overcast OVC037 50 48.2 94% 47 29.97 0.0
06 07:15 N 9 G 18 10.00 Overcast OVC037 50 48.2 94% 47 29.95 0.0
06 06:55 N 7 G 15 10.00 Overcast OVC037 48.2 48.2 100% 46 29.94 0.0
06 06:35 N 9 10.00 Overcast OVC036 48.2 48.2 100% 45 29.95 0.0
06 06:15 Vrbl 7 G 14 10.00 Overcast OVC034 48.2 48.2 100% 46 29.92 0.0
06 05:55 N 12 G 18 10.00 Overcast OVC033 48.2 48.2 100% 44 29.91 0.0
06 05:35 N 13 G 20 10.00 Overcast FEW017 OVC033 48.2 48.2 100% 43 29.91 0.0
06 05:15 N 13 10.00 Overcast FEW014 SCT019 OVC034 48.2 48.2 100% 43 29.91 0.0
06 04:55 N 9 G 16 10.00 Overcast FEW019 OVC033 48.2 48.2 100% 45 29.93 0.0
06 04:35 N 12 G 20 10.00 Overcast FEW018 OVC032 48.2 48.2 100% 44 29.91 0.0
06 04:15 N 12 G 21 10.00 Overcast FEW016 BKN032 OVC042 48.2 48.2 100% 44 29.92 0.0
06 03:55 N 12 G 18 10.00 Overcast FEW016 SCT032 OVC042 48.2 48.2 100% 44 29.91 0.0
06 03:35 N 12 G 21 10.00 Overcast BKN016 BKN033 OVC040 48.2 48.2 100% 44 29.88 0.0
06 03:15 N 13 G 21 10.00 Overcast SCT017 OVC034 50 50 100% 46 29.88 0.0
06 02:55 NE 9 G 17 10.00 Overcast BKN014 BKN018 OVC033 50 50 100% 47 29.88 0.0
06 02:35 N 12 G 21 10.00 Overcast OVC013 50 50 100% 46 29.86 0.0
06 02:15 NE 14 G 20 10.00 Overcast OVC012 50 50 100% 45 29.86 0.0
06 01:55 N 12 G 21 10.00 Overcast OVC010 50 50 100% 46 29.85 0.0
06 01:15 N 8 G 17 10.00 Overcast SCT009 BKN014 OVC031 50 50 100% 47 29.86 0.0
06 00:55 N 13 G 23 10.00 Overcast FEW008 SCT012 OVC031 50 50 100% 46 29.87 0.0
06 00:35 N 8 G 20 2.50 Fog/Mist FEW008 SCT012 BKN018 50 50 100% 47 29.87 0.0
06 00:15 N 10 G 17 2.00 Fog/Mist BKN012 BKN017 51.8 51.8 100% 29.86 0.0
Date Time (cdt) Wind (mph) Vis. (mi.) Weather Sky Cond. Air Dwpt Max. Min. Relative Humidity Wind Chill (°F) Heat Index (°F) altimeter (in) sea level (mb) 1 hr 3 hr 6 hr
6 hour
Temperature (ºF) Pressure Precipitation (in)